aviador You're here:

PASA Decoded Metar

SAVOONGA in AK, USA
Report Time2018-07-21 17:56:00
UTC Time2018-07-21 19:01:07
Flight Rules vfr VFR
Wind130° at 10 kt
W.Decomp.*RWY 05: 3.4 kt HW 9.4 kt RCW
W.Rank130° ranks 29
Current wind is below 130° avg. (10.7)
Visibility9999 m
Phenomena:N/A
Clouds:Overcast 060 Hf
Expected CloudBase > 800 ft AGL from Temp-Dew spread
Ceiling6,000 ft
Temp13°C (ISA -2)
Dew Point11°C (88% RH)
AAT9.7°C
QNH1017 hPa
Density Alt-131 ft
Elevation52 ft
Report Wrong Elevation
Raw Report
PASA 211756Z AUTO 13010KT 10SM OVC060 13/11 A3004 RMK AO2 SLP173
60000 T01280106 10128 20089 56009=

Extra information for PASA:More info

Metar Taf Metar & Taf Last 4 Metars F.Rules Stats Wind Profile Meteogram Temp Stats Airport Information Weather charts Add Link Nearby VenuesMetar ALERT Operation Metar Decoded Social comments

AIRNAV info for PASA